sensor_id;sensor_type;location;lat;lon;timestamp;P1;durP1;ratioP1;P2;durP2;ratioP2
65271;SDS011;51868;48.812;8.198;2022-12-10T00:01:49;27.60;;;14.68;;
65271;SDS011;51868;48.812;8.198;2022-12-10T00:04:20;27.47;;;14.60;;
65271;SDS011;51868;48.812;8.198;2022-12-10T00:06:49;29.48;;;14.25;;
65271;SDS011;51868;48.812;8.198;2022-12-10T00:09:17;26.15;;;12.90;;
65271;SDS011;51868;48.812;8.198;2022-12-10T00:11:47;27.10;;;13.60;;
65271;SDS011;51868;48.812;8.198;2022-12-10T00:14:16;28.48;;;15.13;;
65271;SDS011;51868;48.812;8.198;2022-12-10T00:16:47;27.25;;;14.23;;
65271;SDS011;51868;48.812;8.198;2022-12-10T00:19:17;27.70;;;14.57;;
65271;SDS011;51868;48.812;8.198;2022-12-10T00:21:48;28.67;;;13.88;;
65271;SDS011;51868;48.812;8.198;2022-12-10T00:24:16;25.75;;;14.25;;
65271;SDS011;51868;48.812;8.198;2022-12-10T00:26:48;29.08;;;14.43;;
65271;SDS011;51868;48.812;8.198;2022-12-10T00:29:19;29.20;;;13.63;;
65271;SDS011;51868;48.812;8.198;2022-12-10T00:31:49;30.92;;;14.10;;
65271;SDS011;51868;48.812;8.198;2022-12-10T00:34:22;30.85;;;14.10;;
65271;SDS011;51868;48.812;8.198;2022-12-10T00:36:50;26.63;;;14.43;;
65271;SDS011;51868;48.812;8.198;2022-12-10T00:39:20;28.50;;;14.40;;
65271;SDS011;51868;48.812;8.198;2022-12-10T00:41:48;29.67;;;14.10;;
65271;SDS011;51868;48.812;8.198;2022-12-10T00:44:18;30.35;;;15.35;;
65271;SDS011;51868;48.812;8.198;2022-12-10T00:46:50;26.67;;;13.38;;
65271;SDS011;51868;48.812;8.198;2022-12-10T00:49:19;31.05;;;15.02;;
65271;SDS011;51868;48.812;8.198;2022-12-10T00:51:52;31.85;;;15.27;;
65271;SDS011;51868;48.812;8.198;2022-12-10T00:54:22;27.55;;;14.32;;
65271;SDS011;51868;48.812;8.198;2022-12-10T00:56:50;28.83;;;13.85;;
65271;SDS011;51868;48.812;8.198;2022-12-10T00:59:18;26.42;;;13.73;;
65271;SDS011;51868;48.812;8.198;2022-12-10T01:01:46;28.13;;;14.18;;
65271;SDS011;51868;48.812;8.198;2022-12-10T01:04:16;33.10;;;14.57;;
65271;SDS011;51868;48.812;8.198;2022-12-10T01:06:45;28.05;;;14.32;;
65271;SDS011;51868;48.812;8.198;2022-12-10T01:09:15;26.40;;;14.27;;
65271;SDS011;51868;48.812;8.198;2022-12-10T01:11:46;27.15;;;14.18;;
65271;SDS011;51868;48.812;8.198;2022-12-10T01:14:20;29.35;;;15.60;;
65271;SDS011;51868;48.812;8.198;2022-12-10T01:16:50;28.10;;;14.07;;
65271;SDS011;51868;48.812;8.198;2022-12-10T01:19:22;27.83;;;14.80;;
65271;SDS011;51868;48.812;8.198;2022-12-10T01:21:53;26.58;;;13.27;;
65271;SDS011;51868;48.812;8.198;2022-12-10T01:24:22;28.45;;;14.70;;
65271;SDS011;51868;48.812;8.198;2022-12-10T01:26:51;28.98;;;14.52;;
65271;SDS011;51868;48.812;8.198;2022-12-10T01:29:21;25.13;;;13.68;;
65271;SDS011;51868;48.812;8.198;2022-12-10T01:31:50;27.60;;;13.52;;
65271;SDS011;51868;48.812;8.198;2022-12-10T01:34:19;29.90;;;14.90;;
65271;SDS011;51868;48.812;8.198;2022-12-10T01:36:50;25.83;;;14.02;;
65271;SDS011;51868;48.812;8.198;2022-12-10T01:39:20;28.48;;;14.38;;
65271;SDS011;51868;48.812;8.198;2022-12-10T01:41:50;29.05;;;14.75;;
65271;SDS011;51868;48.812;8.198;2022-12-10T01:47:27;29.67;;;14.82;;
65271;SDS011;51868;48.812;8.198;2022-12-10T01:49:55;27.17;;;14.65;;
65271;SDS011;51868;48.812;8.198;2022-12-10T01:52:26;28.75;;;14.05;;
65271;SDS011;51868;48.812;8.198;2022-12-10T01:54:55;28.00;;;14.07;;
65271;SDS011;51868;48.812;8.198;2022-12-10T01:57:24;27.35;;;14.35;;
65271;SDS011;51868;48.812;8.198;2022-12-10T01:59:54;31.40;;;14.40;;
65271;SDS011;51868;48.812;8.198;2022-12-10T02:02:38;27.77;;;14.88;;
65271;SDS011;51868;48.812;8.198;2022-12-10T02:05:20;31.10;;;15.90;;
65271;SDS011;51868;48.812;8.198;2022-12-10T02:07:56;34.15;;;15.38;;
65271;SDS011;51868;48.812;8.198;2022-12-10T02:10:33;29.75;;;14.73;;
65271;SDS011;51868;48.812;8.198;2022-12-10T02:13:11;28.33;;;14.13;;
65271;SDS011;51868;48.812;8.198;2022-12-10T02:15:46;30.35;;;15.50;;
65271;SDS011;51868;48.812;8.198;2022-12-10T02:20:48;25.60;;;14.00;;
65271;SDS011;51868;48.812;8.198;2022-12-10T02:23:21;26.80;;;15.10;;
65271;SDS011;51868;48.812;8.198;2022-12-10T02:25:56;31.83;;;15.45;;
65271;SDS011;51868;48.812;8.198;2022-12-10T02:28:31;29.15;;;14.77;;
65271;SDS011;51868;48.812;8.198;2022-12-10T02:31:08;29.60;;;14.80;;
65271;SDS011;51868;48.812;8.198;2022-12-10T02:33:42;30.23;;;14.60;;
65271;SDS011;51868;48.812;8.198;2022-12-10T02:36:18;29.20;;;15.00;;
65271;SDS011;51868;48.812;8.198;2022-12-10T02:38:49;30.67;;;14.73;;
65271;SDS011;51868;48.812;8.198;2022-12-10T02:41:22;29.23;;;13.73;;
65271;SDS011;51868;48.812;8.198;2022-12-10T02:43:53;29.02;;;14.02;;
65271;SDS011;51868;48.812;8.198;2022-12-10T02:46:27;28.60;;;13.77;;
65271;SDS011;51868;48.812;8.198;2022-12-10T02:48:56;28.20;;;14.43;;
65271;SDS011;51868;48.812;8.198;2022-12-10T02:51:25;28.23;;;14.55;;
65271;SDS011;51868;48.812;8.198;2022-12-10T02:53:58;26.27;;;13.80;;
65271;SDS011;51868;48.812;8.198;2022-12-10T02:56:29;28.38;;;14.65;;
65271;SDS011;51868;48.812;8.198;2022-12-10T02:59:06;30.55;;;14.68;;
65271;SDS011;51868;48.812;8.198;2022-12-10T03:01:44;29.38;;;14.93;;
65271;SDS011;51868;48.812;8.198;2022-12-10T03:04:24;31.85;;;15.40;;
65271;SDS011;51868;48.812;8.198;2022-12-10T03:06:58;30.77;;;14.40;;
65271;SDS011;51868;48.812;8.198;2022-12-10T03:09:35;34.15;;;14.98;;
65271;SDS011;51868;48.812;8.198;2022-12-10T03:12:08;29.52;;;15.00;;
65271;SDS011;51868;48.812;8.198;2022-12-10T03:14:44;29.55;;;15.10;;
65271;SDS011;51868;48.812;8.198;2022-12-10T03:17:14;27.23;;;14.57;;
65271;SDS011;51868;48.812;8.198;2022-12-10T03:19:46;30.55;;;15.73;;
65271;SDS011;51868;48.812;8.198;2022-12-10T03:22:17;29.23;;;14.90;;
65271;SDS011;51868;48.812;8.198;2022-12-10T03:24:47;30.00;;;14.50;;
65271;SDS011;51868;48.812;8.198;2022-12-10T03:27:15;33.28;;;15.25;;
65271;SDS011;51868;48.812;8.198;2022-12-10T03:29:47;30.80;;;14.98;;
65271;SDS011;51868;48.812;8.198;2022-12-10T03:32:18;27.55;;;14.50;;
65271;SDS011;51868;48.812;8.198;2022-12-10T03:34:49;31.73;;;15.35;;
65271;SDS011;51868;48.812;8.198;2022-12-10T03:37:19;28.42;;;14.27;;
65271;SDS011;51868;48.812;8.198;2022-12-10T03:39:48;27.10;;;14.05;;
65271;SDS011;51868;48.812;8.198;2022-12-10T03:42:20;31.80;;;15.68;;
65271;SDS011;51868;48.812;8.198;2022-12-10T03:44:49;30.60;;;15.55;;
65271;SDS011;51868;48.812;8.198;2022-12-10T03:47:20;27.45;;;13.95;;
65271;SDS011;51868;48.812;8.198;2022-12-10T03:49:49;31.88;;;15.07;;
65271;SDS011;51868;48.812;8.198;2022-12-10T03:52:17;28.85;;;14.48;;
65271;SDS011;51868;48.812;8.198;2022-12-10T03:54:45;33.22;;;15.38;;
65271;SDS011;51868;48.812;8.198;2022-12-10T03:57:15;27.83;;;15.57;;
65271;SDS011;51868;48.812;8.198;2022-12-10T03:59:45;31.73;;;15.93;;
65271;SDS011;51868;48.812;8.198;2022-12-10T04:02:14;30.33;;;14.73;;
65271;SDS011;51868;48.812;8.198;2022-12-10T04:04:44;29.70;;;13.98;;
65271;SDS011;51868;48.812;8.198;2022-12-10T04:07:12;27.92;;;14.55;;
65271;SDS011;51868;48.812;8.198;2022-12-10T04:09:42;29.85;;;14.32;;
65271;SDS011;51868;48.812;8.198;2022-12-10T04:12:10;31.33;;;14.98;;
65271;SDS011;51868;48.812;8.198;2022-12-10T04:14:39;30.70;;;15.15;;
65271;SDS011;51868;48.812;8.198;2022-12-10T04:17:27;31.65;;;14.32;;
65271;SDS011;51868;48.812;8.198;2022-12-10T04:19:59;31.55;;;15.07;;
65271;SDS011;51868;48.812;8.198;2022-12-10T04:22:28;30.73;;;15.85;;
65271;SDS011;51868;48.812;8.198;2022-12-10T04:25:18;37.72;;;16.58;;
65271;SDS011;51868;48.812;8.198;2022-12-10T04:28:04;33.95;;;15.90;;
65271;SDS011;51868;48.812;8.198;2022-12-10T04:30:35;28.92;;;15.32;;
65271;SDS011;51868;48.812;8.198;2022-12-10T04:33:03;29.25;;;14.85;;
65271;SDS011;51868;48.812;8.198;2022-12-10T04:35:32;28.30;;;15.57;;
65271;SDS011;51868;48.812;8.198;2022-12-10T04:38:00;29.65;;;14.88;;
65271;SDS011;51868;48.812;8.198;2022-12-10T04:40:28;32.58;;;14.98;;
65271;SDS011;51868;48.812;8.198;2022-12-10T04:42:58;32.85;;;15.23;;
65271;SDS011;51868;48.812;8.198;2022-12-10T04:45:28;26.23;;;14.00;;
65271;SDS011;51868;48.812;8.198;2022-12-10T04:47:56;31.02;;;14.82;;
65271;SDS011;51868;48.812;8.198;2022-12-10T04:50:25;30.55;;;15.32;;
65271;SDS011;51868;48.812;8.198;2022-12-10T04:52:55;32.67;;;16.30;;
65271;SDS011;51868;48.812;8.198;2022-12-10T04:55:26;31.88;;;15.95;;
65271;SDS011;51868;48.812;8.198;2022-12-10T04:57:57;30.92;;;16.27;;
65271;SDS011;51868;48.812;8.198;2022-12-10T05:00:52;30.25;;;15.30;;
65271;SDS011;51868;48.812;8.198;2022-12-10T05:03:22;36.03;;;16.52;;
65271;SDS011;51868;48.812;8.198;2022-12-10T05:06:01;28.48;;;15.68;;
65271;SDS011;51868;48.812;8.198;2022-12-10T05:08:31;33.88;;;16.73;;
65271;SDS011;51868;48.812;8.198;2022-12-10T05:11:00;32.22;;;15.73;;
65271;SDS011;51868;48.812;8.198;2022-12-10T05:13:29;35.33;;;17.60;;
65271;SDS011;51868;48.812;8.198;2022-12-10T05:15:57;45.25;;;21.27;;
65271;SDS011;51868;48.812;8.198;2022-12-10T05:18:25;35.85;;;17.65;;
65271;SDS011;51868;48.812;8.198;2022-12-10T05:20:57;39.65;;;17.63;;
65271;SDS011;51868;48.812;8.198;2022-12-10T05:23:26;31.10;;;15.18;;
65271;SDS011;51868;48.812;8.198;2022-12-10T05:26:01;32.67;;;15.82;;
65271;SDS011;51868;48.812;8.198;2022-12-10T05:28:36;35.13;;;17.25;;
65271;SDS011;51868;48.812;8.198;2022-12-10T05:31:10;36.40;;;16.92;;
65271;SDS011;51868;48.812;8.198;2022-12-10T05:33:40;34.13;;;16.75;;
65271;SDS011;51868;48.812;8.198;2022-12-10T05:36:09;38.80;;;18.38;;
65271;SDS011;51868;48.812;8.198;2022-12-10T05:38:39;32.95;;;15.82;;
65271;SDS011;51868;48.812;8.198;2022-12-10T05:41:13;37.63;;;17.90;;
65271;SDS011;51868;48.812;8.198;2022-12-10T05:43:44;35.65;;;16.90;;
65271;SDS011;51868;48.812;8.198;2022-12-10T05:46:15;35.17;;;16.85;;
65271;SDS011;51868;48.812;8.198;2022-12-10T05:48:58;39.45;;;18.52;;
65271;SDS011;51868;48.812;8.198;2022-12-10T05:54:00;32.10;;;14.70;;
65271;SDS011;51868;48.812;8.198;2022-12-10T05:56:31;32.38;;;15.02;;
65271;SDS011;51868;48.812;8.198;2022-12-10T05:59:02;34.33;;;16.80;;
65271;SDS011;51868;48.812;8.198;2022-12-10T06:01:36;37.25;;;16.95;;
65271;SDS011;51868;48.812;8.198;2022-12-10T06:04:05;41.55;;;19.95;;
65271;SDS011;51868;48.812;8.198;2022-12-10T06:06:34;40.03;;;17.60;;
65271;SDS011;51868;48.812;8.198;2022-12-10T06:09:10;35.05;;;16.92;;
65271;SDS011;51868;48.812;8.198;2022-12-10T06:11:45;40.10;;;17.55;;
65271;SDS011;51868;48.812;8.198;2022-12-10T06:14:28;37.40;;;17.40;;
65271;SDS011;51868;48.812;8.198;2022-12-10T06:16:56;35.38;;;17.60;;
65271;SDS011;51868;48.812;8.198;2022-12-10T06:19:26;37.78;;;16.73;;
65271;SDS011;51868;48.812;8.198;2022-12-10T06:21:54;38.75;;;16.35;;
65271;SDS011;51868;48.812;8.198;2022-12-10T06:24:24;37.35;;;16.85;;
65271;SDS011;51868;48.812;8.198;2022-12-10T06:26:56;35.60;;;15.80;;
65271;SDS011;51868;48.812;8.198;2022-12-10T06:29:24;40.80;;;17.92;;
65271;SDS011;51868;48.812;8.198;2022-12-10T06:31:52;40.08;;;17.17;;
65271;SDS011;51868;48.812;8.198;2022-12-10T06:34:20;38.95;;;16.73;;
65271;SDS011;51868;48.812;8.198;2022-12-10T06:36:50;38.60;;;17.40;;
65271;SDS011;51868;48.812;8.198;2022-12-10T06:39:18;43.55;;;19.20;;
65271;SDS011;51868;48.812;8.198;2022-12-10T06:41:46;32.65;;;16.15;;
65271;SDS011;51868;48.812;8.198;2022-12-10T06:44:15;36.45;;;18.13;;
65271;SDS011;51868;48.812;8.198;2022-12-10T06:46:43;40.78;;;18.48;;
65271;SDS011;51868;48.812;8.198;2022-12-10T06:49:14;37.17;;;17.58;;
65271;SDS011;51868;48.812;8.198;2022-12-10T06:51:42;37.95;;;17.00;;
65271;SDS011;51868;48.812;8.198;2022-12-10T06:54:10;37.50;;;17.02;;
65271;SDS011;51868;48.812;8.198;2022-12-10T06:56:41;34.53;;;17.15;;
65271;SDS011;51868;48.812;8.198;2022-12-10T06:59:09;40.50;;;18.70;;
65271;SDS011;51868;48.812;8.198;2022-12-10T07:01:39;33.85;;;16.02;;
65271;SDS011;51868;48.812;8.198;2022-12-10T07:04:07;36.25;;;16.13;;
65271;SDS011;51868;48.812;8.198;2022-12-10T07:06:36;38.25;;;16.98;;
65271;SDS011;51868;48.812;8.198;2022-12-10T07:09:06;37.17;;;17.33;;
65271;SDS011;51868;48.812;8.198;2022-12-10T07:11:36;41.75;;;17.75;;
65271;SDS011;51868;48.812;8.198;2022-12-10T07:14:04;36.00;;;16.77;;
65271;SDS011;51868;48.812;8.198;2022-12-10T07:16:34;39.72;;;16.50;;
65271;SDS011;51868;48.812;8.198;2022-12-10T07:19:03;39.55;;;17.80;;
65271;SDS011;51868;48.812;8.198;2022-12-10T07:21:32;39.03;;;18.33;;
65271;SDS011;51868;48.812;8.198;2022-12-10T07:24:02;37.85;;;17.25;;
65271;SDS011;51868;48.812;8.198;2022-12-10T07:26:32;39.30;;;17.73;;
65271;SDS011;51868;48.812;8.198;2022-12-10T07:29:09;36.67;;;16.30;;
65271;SDS011;51868;48.812;8.198;2022-12-10T07:31:41;35.92;;;16.67;;
65271;SDS011;51868;48.812;8.198;2022-12-10T07:34:11;37.17;;;16.92;;
65271;SDS011;51868;48.812;8.198;2022-12-10T07:36:40;32.63;;;16.17;;
65271;SDS011;51868;48.812;8.198;2022-12-10T07:39:12;36.60;;;16.95;;
65271;SDS011;51868;48.812;8.198;2022-12-10T07:44:12;35.15;;;16.40;;
65271;SDS011;51868;48.812;8.198;2022-12-10T07:46:40;35.60;;;17.23;;
65271;SDS011;51868;48.812;8.198;2022-12-10T07:49:08;35.63;;;17.15;;
65271;SDS011;51868;48.812;8.198;2022-12-10T07:51:37;47.28;;;19.75;;
65271;SDS011;51868;48.812;8.198;2022-12-10T07:54:05;52.60;;;22.13;;
65271;SDS011;51868;48.812;8.198;2022-12-10T07:56:36;43.92;;;17.95;;
65271;SDS011;51868;48.812;8.198;2022-12-10T07:59:04;38.28;;;17.63;;
65271;SDS011;51868;48.812;8.198;2022-12-10T08:01:32;34.15;;;16.50;;
65271;SDS011;51868;48.812;8.198;2022-12-10T08:04:00;36.25;;;15.98;;
65271;SDS011;51868;48.812;8.198;2022-12-10T08:06:28;33.92;;;15.70;;
65271;SDS011;51868;48.812;8.198;2022-12-10T08:09:07;35.20;;;17.05;;
65271;SDS011;51868;48.812;8.198;2022-12-10T08:11:35;40.00;;;17.85;;
65271;SDS011;51868;48.812;8.198;2022-12-10T08:14:05;40.40;;;18.40;;
65271;SDS011;51868;48.812;8.198;2022-12-10T08:16:33;37.40;;;17.13;;
65271;SDS011;51868;48.812;8.198;2022-12-10T08:19:06;37.95;;;17.38;;
65271;SDS011;51868;48.812;8.198;2022-12-10T08:21:48;34.30;;;15.52;;
65271;SDS011;51868;48.812;8.198;2022-12-10T08:24:25;36.33;;;16.35;;
65271;SDS011;51868;48.812;8.198;2022-12-10T08:26:59;41.53;;;16.92;;
65271;SDS011;51868;48.812;8.198;2022-12-10T08:29:27;40.85;;;16.35;;
65271;SDS011;51868;48.812;8.198;2022-12-10T08:31:58;36.85;;;17.70;;
65271;SDS011;51868;48.812;8.198;2022-12-10T08:34:29;37.38;;;16.98;;
65271;SDS011;51868;48.812;8.198;2022-12-10T08:37:01;37.83;;;17.65;;
65271;SDS011;51868;48.812;8.198;2022-12-10T08:39:43;34.75;;;15.30;;
65271;SDS011;51868;48.812;8.198;2022-12-10T08:42:11;41.05;;;17.13;;
65271;SDS011;51868;48.812;8.198;2022-12-10T08:44:41;35.50;;;16.42;;
65271;SDS011;51868;48.812;8.198;2022-12-10T08:47:17;35.97;;;17.23;;
65271;SDS011;51868;48.812;8.198;2022-12-10T08:49:45;39.83;;;16.25;;
65271;SDS011;51868;48.812;8.198;2022-12-10T08:52:13;40.22;;;18.95;;
65271;SDS011;51868;48.812;8.198;2022-12-10T08:54:44;33.05;;;15.90;;
65271;SDS011;51868;48.812;8.198;2022-12-10T08:57:29;35.25;;;16.33;;
65271;SDS011;51868;48.812;8.198;2022-12-10T09:00:30;34.83;;;15.93;;
65271;SDS011;51868;48.812;8.198;2022-12-10T09:11:00;36.78;;;15.77;;
65271;SDS011;51868;48.812;8.198;2022-12-10T09:13:41;33.78;;;15.18;;
65271;SDS011;51868;48.812;8.198;2022-12-10T09:16:39;44.13;;;17.05;;
65271;SDS011;51868;48.812;8.198;2022-12-10T09:32:47;39.00;;;17.02;;
65271;SDS011;51868;48.812;8.198;2022-12-10T09:37:51;43.10;;;20.13;;
65271;SDS011;51868;48.812;8.198;2022-12-10T09:40:36;49.97;;;22.25;;
65271;SDS011;51868;48.812;8.198;2022-12-10T09:43:19;39.97;;;18.73;;
65271;SDS011;51868;48.812;8.198;2022-12-10T09:45:57;42.25;;;19.45;;
65271;SDS011;51868;48.812;8.198;2022-12-10T09:48:33;41.17;;;18.25;;
65271;SDS011;51868;48.812;8.198;2022-12-10T09:51:13;39.85;;;17.45;;
65271;SDS011;51868;48.812;8.198;2022-12-10T09:53:48;39.47;;;17.05;;
65271;SDS011;51868;48.812;8.198;2022-12-10T09:56:28;39.35;;;15.52;;
65271;SDS011;51868;48.812;8.198;2022-12-10T09:59:01;35.13;;;15.23;;
65271;SDS011;51868;48.812;8.198;2022-12-10T10:01:43;37.50;;;17.00;;
65271;SDS011;51868;48.812;8.198;2022-12-10T10:04:14;34.80;;;15.98;;
65271;SDS011;51868;48.812;8.198;2022-12-10T10:06:42;30.85;;;15.20;;
65271;SDS011;51868;48.812;8.198;2022-12-10T10:09:27;33.78;;;16.02;;
65271;SDS011;51868;48.812;8.198;2022-12-10T10:11:57;35.20;;;14.95;;
65271;SDS011;51868;48.812;8.198;2022-12-10T10:14:36;31.73;;;15.70;;
65271;SDS011;51868;48.812;8.198;2022-12-10T10:17:27;34.67;;;16.38;;
65271;SDS011;51868;48.812;8.198;2022-12-10T10:19:58;30.70;;;15.25;;
65271;SDS011;51868;48.812;8.198;2022-12-10T10:22:26;32.70;;;15.80;;
65271;SDS011;51868;48.812;8.198;2022-12-10T10:24:59;34.22;;;15.85;;
65271;SDS011;51868;48.812;8.198;2022-12-10T10:27:31;29.52;;;15.30;;
65271;SDS011;51868;48.812;8.198;2022-12-10T10:30:35;34.38;;;15.40;;
65271;SDS011;51868;48.812;8.198;2022-12-10T10:33:55;31.52;;;15.43;;
65271;SDS011;51868;48.812;8.198;2022-12-10T10:36:27;34.10;;;15.32;;
65271;SDS011;51868;48.812;8.198;2022-12-10T10:39:18;35.00;;;15.48;;
65271;SDS011;51868;48.812;8.198;2022-12-10T10:41:54;30.00;;;15.38;;
65271;SDS011;51868;48.812;8.198;2022-12-10T10:44:48;29.80;;;13.95;;
65271;SDS011;51868;48.812;8.198;2022-12-10T10:47:27;31.88;;;15.52;;
65271;SDS011;51868;48.812;8.198;2022-12-10T10:50:02;36.55;;;15.70;;
65271;SDS011;51868;48.812;8.198;2022-12-10T10:52:35;35.05;;;16.48;;
65271;SDS011;51868;48.812;8.198;2022-12-10T10:55:05;29.63;;;14.82;;
65271;SDS011;51868;48.812;8.198;2022-12-10T10:57:57;32.78;;;15.55;;
65271;SDS011;51868;48.812;8.198;2022-12-10T11:00:29;32.70;;;16.13;;
65271;SDS011;51868;48.812;8.198;2022-12-10T11:02:57;30.15;;;14.98;;
65271;SDS011;51868;48.812;8.198;2022-12-10T11:05:28;31.17;;;14.40;;
65271;SDS011;51868;48.812;8.198;2022-12-10T11:08:05;33.58;;;15.77;;
65271;SDS011;51868;48.812;8.198;2022-12-10T11:10:49;35.13;;;15.63;;
65271;SDS011;51868;48.812;8.198;2022-12-10T11:15:58;25.40;;;12.93;;
65271;SDS011;51868;48.812;8.198;2022-12-10T11:18:30;28.17;;;14.60;;
65271;SDS011;51868;48.812;8.198;2022-12-10T11:21:15;24.23;;;12.35;;
65271;SDS011;51868;48.812;8.198;2022-12-10T11:23:48;26.15;;;12.70;;
65271;SDS011;51868;48.812;8.198;2022-12-10T11:26:26;25.83;;;13.02;;
65271;SDS011;51868;48.812;8.198;2022-12-10T11:29:16;30.00;;;14.70;;
65271;SDS011;51868;48.812;8.198;2022-12-10T11:32:01;27.95;;;14.32;;
65271;SDS011;51868;48.812;8.198;2022-12-10T11:34:45;24.35;;;13.60;;
65271;SDS011;51868;48.812;8.198;2022-12-10T11:49:14;25.20;;;12.77;;
65271;SDS011;51868;48.812;8.198;2022-12-10T11:57:31;28.33;;;14.50;;
65271;SDS011;51868;48.812;8.198;2022-12-10T12:00:14;30.85;;;14.68;;
65271;SDS011;51868;48.812;8.198;2022-12-10T12:02:53;29.33;;;14.50;;
65271;SDS011;51868;48.812;8.198;2022-12-10T12:05:39;25.65;;;14.40;;
65271;SDS011;51868;48.812;8.198;2022-12-10T12:08:23;26.08;;;13.55;;
65271;SDS011;51868;48.812;8.198;2022-12-10T12:11:19;26.40;;;12.95;;
65271;SDS011;51868;48.812;8.198;2022-12-10T12:14:00;25.48;;;12.57;;
65271;SDS011;51868;48.812;8.198;2022-12-10T12:16:36;22.13;;;12.98;;
65271;SDS011;51868;48.812;8.198;2022-12-10T12:19:09;24.48;;;12.98;;
65271;SDS011;51868;48.812;8.198;2022-12-10T12:21:43;33.70;;;14.57;;
65271;SDS011;51868;48.812;8.198;2022-12-10T12:26:49;25.80;;;12.73;;
65271;SDS011;51868;48.812;8.198;2022-12-10T12:29:23;25.92;;;12.95;;
65271;SDS011;51868;48.812;8.198;2022-12-10T12:32:03;23.95;;;11.90;;
65271;SDS011;51868;48.812;8.198;2022-12-10T12:34:42;23.83;;;12.70;;
65271;SDS011;51868;48.812;8.198;2022-12-10T12:37:20;26.90;;;13.57;;
65271;SDS011;51868;48.812;8.198;2022-12-10T12:39:59;23.25;;;12.68;;
65271;SDS011;51868;48.812;8.198;2022-12-10T12:42:31;24.75;;;11.60;;
65271;SDS011;51868;48.812;8.198;2022-12-10T12:45:10;23.38;;;12.57;;
65271;SDS011;51868;48.812;8.198;2022-12-10T12:47:43;28.67;;;12.70;;
65271;SDS011;51868;48.812;8.198;2022-12-10T12:50:20;21.13;;;11.52;;
65271;SDS011;51868;48.812;8.198;2022-12-10T12:52:57;20.48;;;11.35;;
65271;SDS011;51868;48.812;8.198;2022-12-10T12:55:29;33.70;;;18.17;;
65271;SDS011;51868;48.812;8.198;2022-12-10T12:58:10;23.83;;;12.85;;
65271;SDS011;51868;48.812;8.198;2022-12-10T13:03:18;22.45;;;10.80;;
65271;SDS011;51868;48.812;8.198;2022-12-10T13:06:11;22.40;;;12.05;;
65271;SDS011;51868;48.812;8.198;2022-12-10T13:08:48;20.38;;;11.63;;
65271;SDS011;51868;48.812;8.198;2022-12-10T13:11:33;19.67;;;11.05;;
65271;SDS011;51868;48.812;8.198;2022-12-10T13:14:15;22.15;;;11.90;;
65271;SDS011;51868;48.812;8.198;2022-12-10T13:17:07;20.73;;;11.15;;
65271;SDS011;51868;48.812;8.198;2022-12-10T13:19:53;23.40;;;11.50;;
65271;SDS011;51868;48.812;8.198;2022-12-10T13:22:54;24.27;;;12.20;;
65271;SDS011;51868;48.812;8.198;2022-12-10T13:28:27;22.10;;;12.38;;
65271;SDS011;51868;48.812;8.198;2022-12-10T13:31:21;25.67;;;14.17;;
65271;SDS011;51868;48.812;8.198;2022-12-10T13:37:18;23.38;;;11.82;;
65271;SDS011;51868;48.812;8.198;2022-12-10T13:40:14;26.15;;;12.45;;
65271;SDS011;51868;48.812;8.198;2022-12-10T13:42:58;22.70;;;13.13;;
65271;SDS011;51868;48.812;8.198;2022-12-10T13:46:20;22.03;;;11.90;;
65271;SDS011;51868;48.812;8.198;2022-12-10T13:48:50;24.67;;;12.85;;
65271;SDS011;51868;48.812;8.198;2022-12-10T13:51:32;24.30;;;12.38;;
65271;SDS011;51868;48.812;8.198;2022-12-10T13:54:18;25.80;;;13.05;;
65271;SDS011;51868;48.812;8.198;2022-12-10T13:57:08;19.90;;;11.70;;
65271;SDS011;51868;48.812;8.198;2022-12-10T13:59:49;23.08;;;12.23;;
65271;SDS011;51868;48.812;8.198;2022-12-10T14:02:40;22.00;;;11.05;;
65271;SDS011;51868;48.812;8.198;2022-12-10T14:05:30;19.02;;;10.80;;
65271;SDS011;51868;48.812;8.198;2022-12-10T14:08:08;19.38;;;11.00;;
65271;SDS011;51868;48.812;8.198;2022-12-10T14:14:11;19.42;;;10.00;;
65271;SDS011;51868;48.812;8.198;2022-12-10T14:16:49;19.02;;;10.65;;
65271;SDS011;51868;48.812;8.198;2022-12-10T14:19:35;19.67;;;10.65;;
65271;SDS011;51868;48.812;8.198;2022-12-10T14:22:05;19.90;;;10.50;;
65271;SDS011;51868;48.812;8.198;2022-12-10T14:24:35;19.17;;;10.95;;
65271;SDS011;51868;48.812;8.198;2022-12-10T14:27:10;17.83;;;10.77;;
65271;SDS011;51868;48.812;8.198;2022-12-10T14:29:43;20.75;;;11.02;;
65271;SDS011;51868;48.812;8.198;2022-12-10T14:32:14;17.65;;;9.82;;
65271;SDS011;51868;48.812;8.198;2022-12-10T14:34:46;21.52;;;11.48;;
65271;SDS011;51868;48.812;8.198;2022-12-10T14:37:19;19.10;;;10.07;;
65271;SDS011;51868;48.812;8.198;2022-12-10T14:39:56;16.60;;;9.70;;
65271;SDS011;51868;48.812;8.198;2022-12-10T14:42:25;18.23;;;10.38;;
65271;SDS011;51868;48.812;8.198;2022-12-10T14:44:56;15.60;;;9.73;;
65271;SDS011;51868;48.812;8.198;2022-12-10T14:47:27;19.73;;;10.25;;
65271;SDS011;51868;48.812;8.198;2022-12-10T14:50:13;19.52;;;10.40;;
65271;SDS011;51868;48.812;8.198;2022-12-10T14:52:43;17.08;;;9.73;;
65271;SDS011;51868;48.812;8.198;2022-12-10T14:55:17;16.95;;;10.07;;
65271;SDS011;51868;48.812;8.198;2022-12-10T14:57:48;18.13;;;10.18;;
65271;SDS011;51868;48.812;8.198;2022-12-10T15:00:19;18.27;;;10.45;;
65271;SDS011;51868;48.812;8.198;2022-12-10T15:02:52;17.85;;;10.27;;
65271;SDS011;51868;48.812;8.198;2022-12-10T15:05:23;19.58;;;10.00;;
65271;SDS011;51868;48.812;8.198;2022-12-10T15:07:54;17.17;;;9.93;;
65271;SDS011;51868;48.812;8.198;2022-12-10T15:10:24;18.58;;;10.68;;
65271;SDS011;51868;48.812;8.198;2022-12-10T15:12:55;17.42;;;9.68;;
65271;SDS011;51868;48.812;8.198;2022-12-10T15:15:24;16.98;;;9.45;;
65271;SDS011;51868;48.812;8.198;2022-12-10T15:18:00;17.33;;;9.63;;
65271;SDS011;51868;48.812;8.198;2022-12-10T15:20:30;18.38;;;9.63;;
65271;SDS011;51868;48.812;8.198;2022-12-10T15:23:15;17.42;;;9.90;;
65271;SDS011;51868;48.812;8.198;2022-12-10T15:25:50;16.60;;;10.00;;
65271;SDS011;51868;48.812;8.198;2022-12-10T15:28:26;19.92;;;10.70;;
65271;SDS011;51868;48.812;8.198;2022-12-10T15:31:10;22.02;;;11.30;;
65271;SDS011;51868;48.812;8.198;2022-12-10T15:33:43;17.85;;;10.95;;
65271;SDS011;51868;48.812;8.198;2022-12-10T15:36:16;22.90;;;11.63;;
65271;SDS011;51868;48.812;8.198;2022-12-10T15:38:47;20.60;;;11.55;;
65271;SDS011;51868;48.812;8.198;2022-12-10T15:41:31;21.20;;;12.15;;
65271;SDS011;51868;48.812;8.198;2022-12-10T15:45:20;17.75;;;11.13;;
65271;SDS011;51868;48.812;8.198;2022-12-10T15:47:52;19.30;;;11.18;;
65271;SDS011;51868;48.812;8.198;2022-12-10T15:50:23;18.65;;;10.38;;
65271;SDS011;51868;48.812;8.198;2022-12-10T15:52:51;22.83;;;12.27;;
65271;SDS011;51868;48.812;8.198;2022-12-10T15:55:20;25.63;;;13.80;;
65271;SDS011;51868;48.812;8.198;2022-12-10T15:57:48;25.23;;;14.60;;
65271;SDS011;51868;48.812;8.198;2022-12-10T16:00:17;25.70;;;12.93;;
65271;SDS011;51868;48.812;8.198;2022-12-10T16:02:49;23.20;;;12.85;;
65271;SDS011;51868;48.812;8.198;2022-12-10T16:05:20;21.35;;;12.95;;
65271;SDS011;51868;48.812;8.198;2022-12-10T16:07:49;23.48;;;12.98;;
65271;SDS011;51868;48.812;8.198;2022-12-10T16:10:20;26.65;;;14.85;;
65271;SDS011;51868;48.812;8.198;2022-12-10T16:12:49;25.13;;;13.27;;